createdAt,value
2023-02-11T00:01:30.727Z,-0.92
2023-02-11T00:03:59.021Z,-0.93
2023-02-11T00:06:28.182Z,-0.93
2023-02-11T00:08:56.910Z,-0.94
2023-02-11T00:11:31.620Z,-0.93
2023-02-11T00:14:01.324Z,-0.94
2023-02-11T00:16:29.741Z,-29.81
2023-02-11T00:19:01.700Z,-58.68
2023-02-11T00:21:29.874Z,-58.69
2023-02-11T00:23:59.917Z,-87.55
2023-02-11T00:26:32.696Z,-29.84
2023-02-11T00:29:01.524Z,-29.83
2023-02-11T00:31:29.818Z,-58.69
2023-02-11T00:33:58.437Z,-0.97
2023-02-11T00:36:28.002Z,-29.82
2023-02-11T00:38:57.586Z,-0.97
2023-02-11T00:41:26.126Z,-0.95
2023-02-11T00:43:54.741Z,-0.95
2023-02-11T00:46:22.928Z,-29.80
2023-02-11T00:48:53.388Z,-26.35
2023-02-11T00:51:24.478Z,-106.04
2023-02-11T00:53:52.884Z,-128.00
2023-02-11T00:56:21.107Z,-128.00
2023-02-11T00:58:49.005Z,-128.00
2023-02-11T01:01:18.512Z,-128.00
2023-02-11T01:03:46.740Z,-128.00
2023-02-11T01:06:15.052Z,-128.00
2023-02-11T01:08:43.231Z,-128.00
2023-02-11T01:11:19.519Z,-128.00
2023-02-11T01:13:48.450Z,-128.00
2023-02-11T01:16:17.083Z,-128.00
2023-02-11T01:18:47.574Z,-128.00
2023-02-11T01:21:18.938Z,-128.00
2023-02-11T01:23:46.841Z,-128.00
2023-02-11T01:26:14.910Z,-128.00
2023-02-11T01:28:43.004Z,-128.00
2023-02-11T01:31:11.026Z,-128.00
2023-02-11T01:33:39.124Z,-128.00
2023-02-11T01:36:08.043Z,-128.00
2023-02-11T01:38:36.297Z,-128.00
2023-02-11T01:41:06.574Z,-128.00
2023-02-11T01:43:36.532Z,-128.00
2023-02-11T01:46:23.522Z,-128.00
2023-02-11T01:49:17.617Z,-128.00
2023-02-11T01:51:53.729Z,-128.00
2023-02-11T01:54:41.894Z,-128.00
2023-02-11T01:57:22.355Z,-128.00
2023-02-11T02:00:21.573Z,-128.00
2023-02-11T02:02:53.227Z,-128.00
2023-02-11T02:05:35.893Z,-128.00
2023-02-11T02:08:10.435Z,-128.00
2023-02-11T02:10:40.170Z,-128.00
2023-02-11T02:13:10.311Z,-128.00
2023-02-11T02:15:40.562Z,-128.00
2023-02-11T02:18:48.995Z,-128.00
2023-02-11T02:21:51.475Z,-128.00
2023-02-11T02:24:36.197Z,-128.00
2023-02-11T02:27:29.099Z,-128.00
2023-02-11T02:30:26.473Z,-128.00
2023-02-11T02:33:05.830Z,-128.00
2023-02-11T02:35:52.560Z,-128.00
2023-02-11T02:38:27.793Z,-128.00
2023-02-11T02:41:09.278Z,-128.00
2023-02-11T02:43:42.544Z,-128.00
2023-02-11T02:46:16.570Z,-128.00
2023-02-11T02:48:44.898Z,-128.00
2023-02-11T02:51:34.384Z,-128.00
2023-02-11T02:54:08.563Z,-128.00
2023-02-11T02:56:59.016Z,-128.00
2023-02-11T02:59:42.094Z,-128.00
2023-02-11T03:02:47.964Z,-128.00
2023-02-11T03:05:18.984Z,-128.00
2023-02-11T03:07:56.853Z,-128.00
2023-02-11T03:10:27.495Z,-128.00
2023-02-11T03:12:55.715Z,-128.00
2023-02-11T03:15:25.295Z,-128.00
2023-02-11T03:17:54.929Z,-128.00
2023-02-11T03:20:23.013Z,-128.00
2023-02-11T03:22:56.037Z,-128.00
2023-02-11T03:25:30.109Z,-128.00
2023-02-11T03:28:07.364Z,-128.00
2023-02-11T03:30:43.540Z,-128.00
2023-02-11T03:33:16.111Z,-128.00
2023-02-11T03:35:47.881Z,-128.00
2023-02-11T03:38:19.774Z,-128.00
2023-02-11T03:40:47.712Z,-128.00
2023-02-11T03:43:22.816Z,-128.00
2023-02-11T03:45:51.497Z,-128.00
2023-02-11T03:48:20.494Z,-128.00
2023-02-11T03:50:48.853Z,-128.00
2023-02-11T03:53:16.695Z,-128.00
2023-02-11T03:55:44.665Z,-128.00
2023-02-11T03:58:13.405Z,-128.00
2023-02-11T04:00:42.236Z,-128.00
2023-02-11T04:03:11.190Z,-128.00
2023-02-11T04:05:39.343Z,-128.00
2023-02-11T04:08:07.600Z,-128.00
2023-02-11T04:10:35.641Z,-128.00
2023-02-11T04:13:03.993Z,-128.00
2023-02-11T04:15:32.652Z,-128.00
2023-02-11T04:18:00.701Z,-128.00
2023-02-11T04:20:28.693Z,-128.00
2023-02-11T04:22:56.739Z,-128.00
2023-02-11T04:25:26.291Z,-128.00
2023-02-11T04:27:54.705Z,-128.00
2023-02-11T04:30:22.986Z,-128.00
2023-02-11T04:32:50.954Z,-128.00
2023-02-11T04:35:19.231Z,-128.00
2023-02-11T04:37:47.158Z,-128.00
2023-02-11T04:40:15.147Z,-128.00
2023-02-11T04:42:44.409Z,-128.00
2023-02-11T04:45:12.724Z,-128.00
2023-02-11T04:47:40.712Z,-128.00
2023-02-11T04:50:09.005Z,-128.00
2023-02-11T04:52:37.393Z,-128.00
2023-02-11T04:55:06.448Z,-128.00
2023-02-11T04:57:34.842Z,-128.00
2023-02-11T05:00:03.953Z,-128.00
2023-02-11T05:02:32.568Z,-128.00
2023-02-11T05:05:00.619Z,-128.00
2023-02-11T05:07:28.703Z,-128.00
2023-02-11T05:09:56.696Z,-128.00
2023-02-11T05:12:24.904Z,-128.00
2023-02-11T05:14:53.004Z,-128.00
2023-02-11T05:17:21.226Z,-128.00
2023-02-11T05:19:49.308Z,-128.00
2023-02-11T05:22:19.821Z,-128.00
2023-02-11T05:24:47.825Z,-128.00
2023-02-11T05:27:15.835Z,-128.00
2023-02-11T05:29:43.849Z,-128.00
2023-02-11T05:32:12.406Z,-128.00
2023-02-11T05:34:40.299Z,-128.00
2023-02-11T05:37:09.138Z,-128.00
2023-02-11T05:39:38.129Z,-128.00
2023-02-11T05:42:06.314Z,-128.00
2023-02-11T05:44:34.484Z,-128.00
2023-02-11T05:47:02.468Z,-128.00
2023-02-11T05:49:30.684Z,-128.00
2023-02-11T05:51:58.919Z,-128.00
2023-02-11T05:54:26.825Z,-128.00
2023-02-11T05:56:54.689Z,-128.00
2023-02-11T05:59:22.676Z,-128.00
2023-02-11T06:01:51.303Z,-128.00
2023-02-11T06:04:19.388Z,-128.00
2023-02-11T06:06:47.271Z,-128.00
2023-02-11T06:09:15.487Z,-128.00
2023-02-11T06:11:43.445Z,-128.00
2023-02-11T06:14:14.406Z,-128.00
2023-02-11T06:16:42.734Z,-128.00
2023-02-11T06:19:11.589Z,-128.00
2023-02-11T06:21:44.093Z,-128.00
2023-02-11T06:24:12.727Z,-128.00
2023-02-11T06:26:40.950Z,-128.00
2023-02-11T06:29:08.876Z,-128.00
2023-02-11T06:31:37.741Z,-128.00
2023-02-11T06:34:06.208Z,-128.00
2023-02-11T06:36:34.537Z,-128.00
2023-02-11T06:39:02.799Z,-128.00
2023-02-11T06:41:30.986Z,-128.00
2023-02-11T06:43:59.186Z,-128.00
2023-02-11T06:46:27.150Z,-128.00
2023-02-11T06:48:55.116Z,-128.00
2023-02-11T06:51:23.141Z,-128.00
2023-02-11T06:53:52.356Z,-128.00
2023-02-11T06:56:21.884Z,-128.00
2023-02-11T06:58:53.511Z,-128.00
2023-02-11T07:01:21.573Z,-128.00
2023-02-11T07:03:50.405Z,-128.00
2023-02-11T07:06:20.734Z,-128.00
2023-02-11T07:08:50.035Z,-128.00
2023-02-11T07:11:26.653Z,-128.00
2023-02-11T07:13:56.621Z,-128.00
2023-02-11T07:16:24.616Z,-128.00
2023-02-11T07:18:54.540Z,-128.00
2023-02-11T07:21:24.756Z,-128.00
2023-02-11T07:23:52.931Z,-128.00
2023-02-11T07:26:23.496Z,-128.00
2023-02-11T07:28:53.352Z,-128.00
2023-02-11T07:31:26.161Z,-128.00
2023-02-11T07:33:55.607Z,-128.00
2023-02-11T07:36:23.632Z,-128.00
2023-02-11T07:38:51.529Z,-128.00
2023-02-11T07:41:21.357Z,-128.00
2023-02-11T07:43:49.498Z,-128.00
2023-02-11T07:46:27.749Z,-128.00
2023-02-11T07:48:55.792Z,-128.00
2023-02-11T07:51:28.719Z,-128.00
2023-02-11T07:53:58.057Z,-128.00
2023-02-11T07:56:26.236Z,-128.00
2023-02-11T07:58:54.897Z,-128.00
2023-02-11T08:01:25.497Z,-128.00
2023-02-11T08:03:57.735Z,-128.00
2023-02-11T08:06:27.147Z,-128.00
2023-02-11T08:08:55.234Z,-128.00
2023-02-11T08:11:27.716Z,-128.00
2023-02-11T08:13:56.000Z,-128.00
2023-02-11T08:16:26.369Z,-128.00
2023-02-11T08:18:57.390Z,-128.00
2023-02-11T08:21:25.874Z,-128.00
2023-02-11T08:23:54.676Z,-128.00
2023-02-11T08:26:25.156Z,-128.00
2023-02-11T08:28:53.931Z,-128.00
2023-02-11T08:31:24.692Z,-128.00
2023-02-11T08:33:54.206Z,-128.00
2023-02-11T08:36:23.657Z,-128.00
2023-02-11T08:38:57.134Z,-128.00
2023-02-11T08:41:34.382Z,-128.00
2023-02-11T08:44:02.739Z,-128.00
2023-02-11T08:46:30.788Z,-128.00
2023-02-11T08:48:58.908Z,-128.00
2023-02-11T08:51:27.975Z,-128.00
2023-02-11T08:53:57.329Z,-128.00
2023-02-11T08:56:25.927Z,-128.00
2023-02-11T08:58:54.166Z,-128.00
2023-02-11T09:01:24.560Z,-128.00
2023-02-11T09:03:52.862Z,-128.00
2023-02-11T09:06:28.517Z,-128.00
2023-02-11T09:09:01.164Z,-128.00
2023-02-11T09:11:34.012Z,-128.00
2023-02-11T09:14:04.043Z,-128.00
2023-02-11T09:16:34.481Z,-128.00
2023-02-11T09:19:05.272Z,-128.00
2023-02-11T09:21:34.271Z,-128.00
2023-02-11T09:24:02.249Z,-128.00
2023-02-11T09:26:31.953Z,-128.00
2023-02-11T09:28:59.891Z,-128.00
2023-02-11T09:31:29.596Z,-128.00
2023-02-11T09:34:02.164Z,-128.00
2023-02-11T09:36:32.257Z,-128.00
2023-02-11T09:39:01.540Z,-128.00
2023-02-11T09:41:35.683Z,-128.00
2023-02-11T09:44:06.170Z,-128.00
2023-02-11T09:46:37.056Z,-128.00
2023-02-11T09:49:05.019Z,-128.00
2023-02-11T09:51:48.312Z,-128.00
2023-02-11T09:54:34.385Z,-128.00
2023-02-11T09:57:02.245Z,-128.00
2023-02-11T09:59:31.649Z,-128.00
2023-02-11T10:02:11.988Z,-128.00
2023-02-11T10:05:05.351Z,-128.00
2023-02-11T10:07:51.677Z,-128.00
2023-02-11T10:10:44.660Z,-128.00
2023-02-11T10:13:30.502Z,-128.00
2023-02-11T10:16:25.001Z,-128.00
2023-02-11T10:19:14.205Z,-128.00
2023-02-11T10:21:58.846Z,-128.00
2023-02-11T10:24:29.159Z,-128.00
2023-02-11T10:26:57.303Z,-128.00
2023-02-11T10:29:40.847Z,-128.00
2023-02-11T10:32:49.358Z,-128.00
2023-02-11T10:35:21.225Z,-128.00
2023-02-11T10:37:49.630Z,-128.00
2023-02-11T10:40:19.562Z,-128.00
2023-02-11T10:42:50.088Z,-128.00
2023-02-11T10:45:44.614Z,-128.00
2023-02-11T10:48:45.271Z,-128.00
2023-02-11T10:51:22.918Z,-128.00
2023-02-11T10:54:19.403Z,-128.00
2023-02-11T10:56:50.264Z,-128.00
2023-02-11T10:59:31.025Z,-128.00
2023-02-11T11:02:16.895Z,-128.00
2023-02-11T11:04:45.443Z,-128.00
2023-02-11T11:07:25.392Z,-128.00
2023-02-11T11:09:55.107Z,-128.00
2023-02-11T11:12:40.294Z,-128.00
2023-02-11T11:15:19.808Z,-128.00
2023-02-11T11:17:50.908Z,-128.00
2023-02-11T11:20:20.301Z,-128.00
2023-02-11T11:22:49.782Z,-128.00
2023-02-11T11:25:23.352Z,-128.00
2023-02-11T11:27:58.112Z,-128.00
2023-02-11T11:30:41.402Z,-128.00
2023-02-11T11:33:23.984Z,-128.00
2023-02-11T11:36:04.889Z,-128.00
2023-02-11T11:38:33.481Z,-128.00
2023-02-11T11:41:17.046Z,-128.00
2023-02-11T11:44:23.517Z,-128.00
2023-02-11T11:47:04.893Z,-128.00
2023-02-11T11:49:35.857Z,-128.00
2023-02-11T11:52:33.150Z,-128.00
2023-02-11T11:55:17.400Z,-128.00
2023-02-11T11:57:45.404Z,-128.00
2023-02-11T12:00:49.668Z,-128.00
2023-02-11T12:03:18.761Z,-128.00
2023-02-11T12:06:02.126Z,-128.00
2023-02-11T12:09:07.945Z,-128.00
2023-02-11T12:11:54.513Z,-128.00
2023-02-11T12:14:43.485Z,-128.00
2023-02-11T12:17:31.802Z,-128.00
2023-02-11T12:20:02.669Z,-128.00
2023-02-11T12:22:43.451Z,-128.00
2023-02-11T12:25:26.689Z,-128.00
2023-02-11T12:28:04.321Z,-128.00
2023-02-11T12:30:57.215Z,-128.00
2023-02-11T12:33:41.039Z,-128.00
2023-02-11T12:36:33.798Z,-128.00
2023-02-11T12:39:39.703Z,-128.00
2023-02-11T12:43:01.458Z,-128.00
2023-02-11T12:45:49.762Z,-128.00
2023-02-11T12:48:26.994Z,-128.00
2023-02-11T12:51:04.857Z,-128.00
2023-02-11T12:53:45.254Z,-128.00
2023-02-11T12:56:54.281Z,-128.00
2023-02-11T12:59:31.982Z,-128.00
2023-02-11T13:02:00.095Z,-128.00
2023-02-11T13:04:39.035Z,-128.00
2023-02-11T13:07:13.934Z,-128.00
2023-02-11T13:09:45.249Z,-128.00
2023-02-11T13:12:32.717Z,-128.00
2023-02-11T13:15:03.852Z,-128.00
2023-02-11T13:17:36.785Z,-128.00
2023-02-11T13:20:34.887Z,-128.00
2023-02-11T13:23:12.717Z,-128.00
2023-02-11T13:25:43.092Z,-128.00
2023-02-11T13:28:23.822Z,-128.00
2023-02-11T13:31:02.065Z,-128.00
2023-02-11T13:33:37.849Z,-128.00
2023-02-11T13:36:05.763Z,-128.00
2023-02-11T13:38:33.963Z,-128.00
2023-02-11T13:41:17.266Z,-128.00
2023-02-11T13:43:45.280Z,-128.00
2023-02-11T13:46:13.789Z,-128.00
2023-02-11T13:48:46.793Z,-128.00
2023-02-11T13:51:17.909Z,-128.00
2023-02-11T13:53:54.906Z,-128.00
2023-02-11T13:56:30.870Z,-128.00
2023-02-11T13:59:02.020Z,-128.00
2023-02-11T14:02:29.204Z,-128.00
2023-02-11T14:05:41.991Z,-128.00
2023-02-11T14:08:30.287Z,-128.00
2023-02-11T14:11:08.678Z,-128.00
2023-02-11T14:14:04.469Z,-128.00
2023-02-11T14:16:38.262Z,-128.00
2023-02-11T14:19:08.663Z,-128.00
2023-02-11T14:21:38.314Z,-128.00
2023-02-11T14:24:13.061Z,-128.00
2023-02-11T14:26:52.413Z,-128.00
2023-02-11T14:29:34.201Z,-128.00
2023-02-11T14:32:19.769Z,-128.00
2023-02-11T14:34:53.616Z,-128.00
2023-02-11T14:37:33.238Z,-128.00
2023-02-11T14:40:47.930Z,-128.00
2023-02-11T14:43:18.633Z,-128.00
2023-02-11T14:45:50.490Z,-128.00
2023-02-11T14:48:19.656Z,-128.00
2023-02-11T14:50:52.801Z,-128.00
2023-02-11T14:53:22.668Z,-128.00
2023-02-11T14:55:54.947Z,-128.00
2023-02-11T14:58:30.283Z,-128.00
2023-02-11T15:01:09.331Z,-128.00
2023-02-11T15:03:41.745Z,-128.00
2023-02-11T15:06:23.326Z,-128.00
2023-02-11T15:08:52.158Z,-128.00
2023-02-11T15:11:24.768Z,-128.00
2023-02-11T15:13:55.324Z,-128.00
2023-02-11T15:16:24.225Z,-128.00
2023-02-11T15:19:02.734Z,-128.00
2023-02-11T15:21:32.535Z,-128.00
2023-02-11T15:24:21.011Z,-128.00
2023-02-11T15:27:21.121Z,-128.00
2023-02-11T15:29:50.623Z,-128.00
2023-02-11T15:32:21.655Z,-128.00
2023-02-11T15:34:51.343Z,-128.00
2023-02-11T15:37:25.197Z,-128.00
2023-02-11T15:39:53.695Z,-128.00
2023-02-11T15:42:22.190Z,-128.00
2023-02-11T15:45:12.075Z,-128.00
2023-02-11T15:47:42.043Z,-128.00
2023-02-11T15:50:20.093Z,-128.00
2023-02-11T15:52:48.120Z,-128.00
2023-02-11T15:55:16.775Z,-128.00
2023-02-11T15:57:58.797Z,-128.00
2023-02-11T16:00:33.862Z,-128.00
2023-02-11T16:03:02.100Z,-128.00
2023-02-11T16:05:36.187Z,-128.00
2023-02-11T16:08:21.405Z,-128.00
2023-02-11T16:11:03.401Z,-128.00
2023-02-11T16:13:34.649Z,-128.00
2023-02-11T16:16:04.698Z,-128.00
2023-02-11T16:18:39.675Z,-128.00
2023-02-11T16:21:15.927Z,-128.00
2023-02-11T16:23:50.542Z,-128.00
2023-02-11T16:26:33.041Z,-128.00
2023-02-11T16:29:10.876Z,-128.00
2023-02-11T16:31:44.622Z,-128.00
2023-02-11T16:34:24.580Z,-128.00
2023-02-11T16:36:53.599Z,-128.00
2023-02-11T16:39:22.489Z,-128.00
2023-02-11T16:41:52.802Z,-128.00
2023-02-11T16:44:21.486Z,-128.00
2023-02-11T16:46:52.218Z,-128.00
2023-02-11T16:49:25.667Z,-128.00
2023-02-11T16:51:56.882Z,-128.00
2023-02-11T16:54:28.645Z,-128.00
2023-02-11T16:56:57.019Z,-128.00
2023-02-11T16:59:25.219Z,-128.00
2023-02-11T17:01:53.710Z,-128.00
2023-02-11T17:04:29.535Z,-128.00
2023-02-11T17:06:58.698Z,-128.00
2023-02-11T17:09:30.236Z,-128.00
2023-02-11T17:12:01.470Z,-128.00
2023-02-11T17:14:29.611Z,-128.00
2023-02-11T17:16:57.878Z,-128.00
2023-02-11T17:19:25.746Z,-128.00
2023-02-11T17:21:53.949Z,-128.00
2023-02-11T17:24:22.125Z,-128.00
2023-02-11T17:26:50.443Z,-128.00
2023-02-11T17:29:23.233Z,-128.00
2023-02-11T17:31:52.233Z,-128.00
2023-02-11T17:34:21.132Z,-128.00
2023-02-11T17:36:49.315Z,-128.00
2023-02-11T17:39:17.562Z,-128.00
2023-02-11T17:41:45.719Z,-128.00
2023-02-11T17:44:15.549Z,-128.00
2023-02-11T17:46:43.775Z,-128.00
2023-02-11T17:49:14.344Z,-128.00
2023-02-11T17:51:43.619Z,-128.00
2023-02-11T17:54:13.381Z,-128.00
2023-02-11T17:56:41.535Z,-128.00
2023-02-11T17:59:09.722Z,-128.00
2023-02-11T18:01:38.924Z,-128.00
2023-02-11T18:04:13.272Z,-128.00
2023-02-11T18:06:42.289Z,-128.00
2023-02-11T18:09:10.572Z,-128.00
2023-02-11T18:11:41.169Z,-128.00
2023-02-11T18:14:10.227Z,-128.00
2023-02-11T18:16:43.179Z,-128.00
2023-02-11T18:19:12.253Z,-128.00
2023-02-11T18:21:41.674Z,-128.00
2023-02-11T18:24:09.631Z,-128.00
2023-02-11T18:26:37.617Z,-128.00
2023-02-11T18:29:07.036Z,-128.00
2023-02-11T18:31:35.614Z,-128.00
2023-02-11T18:34:05.907Z,-128.00
2023-02-11T18:36:34.066Z,-128.00
2023-02-11T18:39:02.590Z,-128.00
2023-02-11T18:41:30.748Z,-128.00
2023-02-11T18:44:02.814Z,-128.00
2023-02-11T18:46:31.506Z,-128.00
2023-02-11T18:48:59.637Z,-128.00
2023-02-11T18:51:27.642Z,-128.00
2023-02-11T18:53:56.167Z,-128.00
2023-02-11T18:56:25.109Z,-128.00
2023-02-11T18:58:55.093Z,-128.00
2023-02-11T19:01:26.010Z,-128.00
2023-02-11T19:03:55.002Z,-128.00
2023-02-11T19:06:27.154Z,-128.00
2023-02-11T19:08:59.184Z,-128.00
2023-02-11T19:11:47.016Z,-128.00
2023-02-11T19:14:37.389Z,-128.00
2023-02-11T19:17:07.037Z,-128.00
2023-02-11T19:19:35.623Z,-128.00
2023-02-11T19:22:08.502Z,-128.00
2023-02-11T19:24:39.479Z,-128.00
2023-02-11T19:27:11.792Z,-128.00
2023-02-11T19:29:40.152Z,-128.00
2023-02-11T19:32:08.609Z,-128.00
2023-02-11T19:34:41.309Z,-128.00
2023-02-11T19:37:12.584Z,-128.00
2023-02-11T19:39:41.991Z,-128.00
2023-02-11T19:42:13.430Z,-128.00
2023-02-11T19:44:41.935Z,-128.00
2023-02-11T19:47:10.596Z,-128.00
2023-02-11T19:49:38.538Z,-128.00
2023-02-11T19:52:06.449Z,-128.00
2023-02-11T19:54:34.940Z,-128.00
2023-02-11T19:57:07.330Z,-128.00
2023-02-11T19:59:35.826Z,-128.00
2023-02-11T20:02:03.936Z,-128.00
2023-02-11T20:04:32.321Z,-128.00
2023-02-11T20:07:00.375Z,-128.00
2023-02-11T20:09:31.142Z,-128.00
2023-02-11T20:11:59.664Z,-128.00
2023-02-11T20:14:28.416Z,-128.00
2023-02-11T20:16:56.482Z,-128.00
2023-02-11T20:19:25.896Z,-128.00
2023-02-11T20:21:55.612Z,-128.00
2023-02-11T20:24:24.221Z,-128.00
2023-02-11T20:26:55.772Z,-128.00
2023-02-11T20:29:25.106Z,-128.00
2023-02-11T20:31:54.038Z,-128.00
2023-02-11T20:34:23.232Z,-128.00
2023-02-11T20:36:52.223Z,-128.00
2023-02-11T20:39:22.316Z,-128.00
2023-02-11T20:41:51.068Z,-128.00
2023-02-11T20:44:21.398Z,-128.00
2023-02-11T20:46:49.561Z,-128.00
2023-02-11T20:49:19.762Z,-128.00
2023-02-11T20:51:49.179Z,-128.00
2023-02-11T20:54:18.490Z,-128.00
2023-02-11T20:56:51.254Z,-128.00
2023-02-11T20:59:21.119Z,-128.00
2023-02-11T21:01:50.903Z,-128.00
2023-02-11T21:04:20.697Z,-128.00
2023-02-11T21:06:53.261Z,-128.00
2023-02-11T21:09:23.637Z,-128.00
2023-02-11T21:11:52.728Z,-128.00
2023-02-11T21:14:22.352Z,-128.00
2023-02-11T21:16:50.277Z,-128.00
2023-02-11T21:19:18.855Z,-128.00
2023-02-11T21:21:46.841Z,-128.00
2023-02-11T21:24:14.918Z,-128.00
2023-02-11T21:26:43.109Z,-128.00
2023-02-11T21:29:11.837Z,-128.00
2023-02-11T21:31:40.426Z,-128.00
2023-02-11T21:34:09.938Z,-128.00
2023-02-11T21:36:38.291Z,-128.00
2023-02-11T21:39:06.919Z,-128.00
2023-02-11T21:41:35.604Z,-128.00
2023-02-11T21:44:03.497Z,-128.00
2023-02-11T21:46:32.383Z,-128.00
2023-02-11T21:49:00.447Z,-128.00
2023-02-11T21:51:28.487Z,-128.00
2023-02-11T21:53:58.277Z,-128.00
2023-02-11T21:56:29.929Z,-128.00
2023-02-11T21:58:58.764Z,-128.00
2023-02-11T22:01:31.362Z,-128.00
2023-02-11T22:03:59.349Z,-128.00
2023-02-11T22:06:32.891Z,-128.00
2023-02-11T22:09:08.462Z,-128.00
2023-02-11T22:11:36.429Z,-128.00
2023-02-11T22:14:04.856Z,-128.00
2023-02-11T22:16:33.548Z,-128.00
2023-02-11T22:19:02.596Z,-128.00
2023-02-11T22:21:30.786Z,-128.00
2023-02-11T22:23:58.850Z,-128.00
2023-02-11T22:26:27.347Z,-128.00
2023-02-11T22:28:56.404Z,-128.00
2023-02-11T22:31:31.295Z,-128.00
2023-02-11T22:34:00.033Z,-128.00
2023-02-11T22:36:30.063Z,-128.00
2023-02-11T22:39:06.201Z,-128.00
2023-02-11T22:41:34.392Z,-128.00
2023-02-11T22:44:03.111Z,-128.00
2023-02-11T22:46:31.406Z,-128.00
2023-02-11T22:48:59.592Z,-128.00
2023-02-11T22:51:28.876Z,-128.00
2023-02-11T22:54:01.442Z,-128.00
2023-02-11T22:56:30.869Z,-128.00
2023-02-11T22:59:00.007Z,-128.00
2023-02-11T23:01:28.797Z,-128.00
2023-02-11T23:03:57.038Z,-128.00
2023-02-11T23:06:25.035Z,-128.00
2023-02-11T23:08:53.118Z,-128.00
2023-02-11T23:11:23.526Z,-128.00
2023-02-11T23:13:52.983Z,-128.00
2023-02-11T23:16:24.056Z,-128.00
2023-02-11T23:18:52.420Z,-128.00
2023-02-11T23:21:22.956Z,-128.00
2023-02-11T23:23:58.145Z,-128.00
2023-02-11T23:26:26.296Z,-128.00
2023-02-11T23:28:54.424Z,-128.00
2023-02-11T23:31:24.564Z,-128.00
2023-02-11T23:33:52.556Z,-128.00
2023-02-11T23:36:20.934Z,-128.00
2023-02-11T23:38:51.771Z,-128.00
2023-02-11T23:41:20.781Z,-128.00
2023-02-11T23:43:53.369Z,-128.00
2023-02-11T23:46:24.265Z,-128.00
2023-02-11T23:48:53.140Z,-128.00
2023-02-11T23:51:22.069Z,-128.00
2023-02-11T23:53:50.471Z,-128.00
2023-02-11T23:56:23.292Z,-128.00
2023-02-11T23:58:53.322Z,-128.00
